createdAt,value
2022-08-25T00:00:13.995Z,6.10
2022-08-25T00:02:41.485Z,8.87
2022-08-25T00:05:21.931Z,9.30
2022-08-25T00:07:48.941Z,5.93
2022-08-25T00:10:15.548Z,7.40
2022-08-25T00:12:42.183Z,8.03
2022-08-25T00:15:09.805Z,8.40
2022-08-25T00:17:36.488Z,9.17
2022-08-25T00:20:05.230Z,4.83
2022-08-25T00:22:31.897Z,8.10
2022-08-25T00:24:58.522Z,7.00
2022-08-25T00:27:25.967Z,6.53
2022-08-25T00:29:52.586Z,7.40
2022-08-25T00:32:19.311Z,5.60
2022-08-25T00:34:46.332Z,7.10
2022-08-25T00:37:13.306Z,6.83
2022-08-25T00:39:40.201Z,7.60
2022-08-25T00:42:16.128Z,5.50
2022-08-25T00:44:43.924Z,5.30
2022-08-25T00:47:10.932Z,8.20
2022-08-25T00:49:45.240Z,7.10
2022-08-25T00:52:27.441Z,7.83
2022-08-25T00:55:07.774Z,5.67
2022-08-25T00:57:39.476Z,5.80
2022-08-25T01:00:12.415Z,13.40
2022-08-25T01:02:39.635Z,5.77
2022-08-25T01:05:06.722Z,6.77
2022-08-25T01:07:33.564Z,7.83
2022-08-25T01:10:01.005Z,7.60
2022-08-25T01:12:27.731Z,5.70
2022-08-25T01:14:55.305Z,8.40
2022-08-25T01:17:22.046Z,6.70
2022-08-25T01:19:48.630Z,5.83
2022-08-25T01:22:15.692Z,7.83
2022-08-25T01:25:03.961Z,11.27
2022-08-25T01:27:30.650Z,6.30
2022-08-25T01:29:58.019Z,6.00
2022-08-25T01:32:25.082Z,5.83
2022-08-25T01:34:51.983Z,8.37
2022-08-25T01:37:19.310Z,10.63
2022-08-25T01:39:46.588Z,5.97
2022-08-25T01:42:19.364Z,6.90
2022-08-25T01:44:47.655Z,6.70
2022-08-25T01:47:15.211Z,8.03
2022-08-25T01:49:42.093Z,8.60
2022-08-25T01:52:25.090Z,6.77
2022-08-25T01:54:51.847Z,9.63
2022-08-25T01:57:18.520Z,8.73
2022-08-25T01:59:45.527Z,7.53
2022-08-25T02:02:12.269Z,5.87
2022-08-25T02:04:39.525Z,6.07
2022-08-25T02:07:08.732Z,6.73
2022-08-25T02:09:36.825Z,7.30
2022-08-25T02:12:03.821Z,6.73
2022-08-25T02:14:30.456Z,6.57
2022-08-25T02:16:57.300Z,5.70
2022-08-25T02:19:25.841Z,6.10
2022-08-25T02:21:52.670Z,6.30
2022-08-25T02:24:19.323Z,6.40
2022-08-25T02:26:46.044Z,10.00
2022-08-25T02:29:12.748Z,6.40
2022-08-25T02:31:39.728Z,7.43
2022-08-25T02:34:07.938Z,10.03
2022-08-25T02:36:34.867Z,6.17
2022-08-25T02:39:02.167Z,5.80
2022-08-25T02:41:31.809Z,7.40
2022-08-25T02:43:59.895Z,6.30
2022-08-25T02:46:29.196Z,6.90
2022-08-25T02:48:55.886Z,6.13
2022-08-25T02:51:24.310Z,8.50
2022-08-25T02:53:51.362Z,6.00
2022-08-25T02:56:18.951Z,11.70
2022-08-25T02:58:46.784Z,7.03
2022-08-25T03:01:14.531Z,9.17
2022-08-25T03:03:43.636Z,9.10
2022-08-25T03:06:12.815Z,8.03
2022-08-25T03:08:40.126Z,10.43
2022-08-25T03:11:07.077Z,8.43
2022-08-25T03:13:33.834Z,8.50
2022-08-25T03:16:01.674Z,6.83
2022-08-25T03:18:30.193Z,10.27
2022-08-25T03:20:58.088Z,6.23
2022-08-25T03:23:25.122Z,7.57
2022-08-25T03:26:13.342Z,9.40
2022-08-25T03:28:41.680Z,10.33
2022-08-25T03:31:09.542Z,8.50
2022-08-25T03:33:36.473Z,6.03
2022-08-25T03:36:03.469Z,10.07
2022-08-25T03:38:30.118Z,10.40
2022-08-25T03:40:56.783Z,6.60
2022-08-25T03:43:23.655Z,7.60
2022-08-25T03:45:50.383Z,9.63
2022-08-25T03:48:17.678Z,7.60
2022-08-25T03:50:50.463Z,10.40
2022-08-25T03:53:19.923Z,10.93
2022-08-25T03:55:46.832Z,15.60
2022-08-25T03:58:16.637Z,9.03
2022-08-25T04:00:43.309Z,8.77
2022-08-25T04:03:10.015Z,8.77
2022-08-25T04:05:36.709Z,10.93
2022-08-25T04:08:03.793Z,8.90
2022-08-25T04:10:31.194Z,6.93
2022-08-25T04:12:58.238Z,8.07
2022-08-25T04:15:28.568Z,8.23
2022-08-25T04:17:59.007Z,8.63
2022-08-25T04:20:26.325Z,9.07
2022-08-25T04:22:53.105Z,10.03
2022-08-25T04:25:19.913Z,8.20
2022-08-25T04:27:46.574Z,7.80
2022-08-25T04:30:13.752Z,9.10
2022-08-25T04:32:40.377Z,10.03
2022-08-25T04:35:07.575Z,10.90
2022-08-25T04:37:34.477Z,9.80
2022-08-25T04:40:02.147Z,11.93
2022-08-25T04:42:28.904Z,18.10
2022-08-25T04:44:55.872Z,10.40
2022-08-25T04:47:22.663Z,9.80
2022-08-25T04:49:49.340Z,9.57
2022-08-25T04:52:16.110Z,11.03
2022-08-25T04:54:43.738Z,9.20
2022-08-25T04:57:10.442Z,14.90
2022-08-25T04:59:37.080Z,8.83
2022-08-25T05:02:05.227Z,12.53
2022-08-25T05:04:33.795Z,11.43
2022-08-25T05:07:00.970Z,9.70
2022-08-25T05:09:27.998Z,10.53
2022-08-25T05:11:54.982Z,13.07
2022-08-25T05:14:25.654Z,12.07
2022-08-25T05:16:54.914Z,9.20
2022-08-25T05:19:22.255Z,12.40
2022-08-25T05:21:48.991Z,11.40
2022-08-25T05:24:15.749Z,9.10
2022-08-25T05:26:44.005Z,9.87
2022-08-25T05:29:11.710Z,12.70
2022-08-25T05:31:42.337Z,11.03
2022-08-25T05:34:12.072Z,12.73
2022-08-25T05:36:43.110Z,9.17
2022-08-25T05:39:10.522Z,9.20
2022-08-25T05:41:37.241Z,7.43
2022-08-25T05:44:04.151Z,15.10
2022-08-25T05:46:31.641Z,9.23
2022-08-25T05:48:59.056Z,10.47
2022-08-25T05:51:26.327Z,8.57
2022-08-25T05:53:53.087Z,8.77
2022-08-25T05:56:19.990Z,8.07
2022-08-25T05:58:47.029Z,17.33
2022-08-25T06:01:45.574Z,10.63
2022-08-25T06:04:16.171Z,9.80
2022-08-25T06:06:42.869Z,8.40
2022-08-25T06:09:11.968Z,8.47
2022-08-25T06:11:39.966Z,9.30
2022-08-25T06:14:07.662Z,9.67
2022-08-25T06:16:34.450Z,7.00
2022-08-25T06:19:03.463Z,9.13
2022-08-25T06:21:30.581Z,8.83
2022-08-25T06:23:57.264Z,7.27
2022-08-25T06:26:24.597Z,7.53
2022-08-25T06:28:51.750Z,10.33
2022-08-25T06:31:22.225Z,7.90
2022-08-25T06:33:49.563Z,7.97
2022-08-25T06:36:16.471Z,10.57
2022-08-25T06:38:43.453Z,9.10
2022-08-25T06:41:13.000Z,11.63
2022-08-25T06:43:47.304Z,9.90
2022-08-25T06:46:36.348Z,16.43
2022-08-25T06:49:08.158Z,7.70
2022-08-25T06:51:38.278Z,12.13
2022-08-25T06:54:06.639Z,11.63
2022-08-25T06:56:38.987Z,8.63
2022-08-25T06:59:06.681Z,10.20
2022-08-25T07:01:34.156Z,14.37
2022-08-25T07:04:02.760Z,12.90
2022-08-25T07:06:32.164Z,12.03
2022-08-25T07:09:00.321Z,19.00
2022-08-25T07:11:27.781Z,10.03
2022-08-25T07:13:54.552Z,12.70
2022-08-25T07:16:21.819Z,12.37
2022-08-25T07:18:49.277Z,13.83
2022-08-25T07:21:16.206Z,13.50
2022-08-25T07:23:42.843Z,12.40
2022-08-25T07:26:33.648Z,11.10
2022-08-25T07:28:59.719Z,10.47
2022-08-25T07:31:29.453Z,14.87
2022-08-25T07:34:16.340Z,10.80
2022-08-25T07:36:43.729Z,10.97
2022-08-25T07:39:10.952Z,12.80
2022-08-25T07:41:41.131Z,11.53
2022-08-25T07:44:11.340Z,10.43
2022-08-25T07:46:38.923Z,16.10
2022-08-25T07:49:16.375Z,9.97
2022-08-25T07:52:05.259Z,12.23
2022-08-25T07:54:33.908Z,12.13
2022-08-25T07:57:01.034Z,12.17
2022-08-25T07:59:30.047Z,13.13
2022-08-25T08:01:57.402Z,10.03
2022-08-25T08:04:24.270Z,14.87
2022-08-25T08:06:50.877Z,12.90
2022-08-25T08:09:17.548Z,10.37
2022-08-25T08:11:53.833Z,8.80
2022-08-25T08:14:21.472Z,18.07
2022-08-25T08:16:48.156Z,14.30
2022-08-25T08:19:15.841Z,12.27
2022-08-25T08:21:46.708Z,12.20
2022-08-25T08:24:31.227Z,12.70
2022-08-25T08:27:00.905Z,19.93
2022-08-25T08:29:27.876Z,10.43
2022-08-25T08:31:54.522Z,14.57
2022-08-25T08:34:24.898Z,16.30
2022-08-25T08:36:52.991Z,18.63
2022-08-25T08:39:19.811Z,13.07
2022-08-25T08:42:27.439Z,15.80
2022-08-25T08:45:17.242Z,15.10
2022-08-25T08:48:00.852Z,21.43
2022-08-25T08:50:40.337Z,13.00
2022-08-25T08:53:22.377Z,19.93
2022-08-25T08:55:53.053Z,14.03
2022-08-25T08:58:26.428Z,15.63
2022-08-25T09:00:58.310Z,17.33
2022-08-25T09:03:37.158Z,13.87
2022-08-25T09:06:18.972Z,10.40
2022-08-25T09:08:46.051Z,14.97
2022-08-25T09:11:18.941Z,15.17
2022-08-25T09:14:23.106Z,16.10
2022-08-25T09:17:26.587Z,13.57
2022-08-25T09:19:53.805Z,12.00
2022-08-25T09:22:33.853Z,14.30
2022-08-25T09:25:53.082Z,12.43
2022-08-25T09:28:32.800Z,15.57
2022-08-25T09:31:05.017Z,16.73
2022-08-25T09:33:35.525Z,13.13
2022-08-25T09:36:06.437Z,15.50
2022-08-25T09:38:35.811Z,15.43
2022-08-25T09:41:03.182Z,11.70
2022-08-25T09:43:33.336Z,13.13
2022-08-25T09:46:16.144Z,10.83
2022-08-25T09:48:55.965Z,15.23
2022-08-25T09:51:42.206Z,14.00
2022-08-25T09:54:17.854Z,12.43
2022-08-25T09:56:53.686Z,13.80
2022-08-25T09:59:30.828Z,13.10
2022-08-25T10:02:21.139Z,13.57
2022-08-25T10:04:52.311Z,13.70
2022-08-25T10:07:32.318Z,15.70
2022-08-25T10:10:04.397Z,9.90
2022-08-25T10:12:42.738Z,14.40
2022-08-25T10:15:15.981Z,14.63
2022-08-25T10:17:56.590Z,10.77
2022-08-25T10:20:28.675Z,19.20
2022-08-25T10:23:20.231Z,12.10
2022-08-25T10:26:00.372Z,19.80
2022-08-25T10:28:34.400Z,14.47
2022-08-25T10:31:10.288Z,14.27
2022-08-25T10:33:46.216Z,12.60
2022-08-25T10:36:21.646Z,13.20
2022-08-25T10:39:01.612Z,12.87
2022-08-25T10:41:37.729Z,11.30
2022-08-25T10:44:31.113Z,10.47
2022-08-25T10:47:05.915Z,13.50
2022-08-25T10:49:45.205Z,12.20
2022-08-25T10:52:21.491Z,16.60
2022-08-25T10:55:14.457Z,13.80
2022-08-25T10:58:03.040Z,10.30
2022-08-25T11:00:37.457Z,11.57
2022-08-25T11:03:35.323Z,12.50
2022-08-25T11:06:15.317Z,17.50
2022-08-25T11:08:52.038Z,10.83
2022-08-25T11:11:33.054Z,11.20
2022-08-25T11:14:11.390Z,15.30
2022-08-25T11:16:58.527Z,12.87
2022-08-25T11:19:31.231Z,11.90
2022-08-25T11:22:21.765Z,16.53
2022-08-25T11:25:01.080Z,14.30
2022-08-25T11:27:51.485Z,13.17
2022-08-25T11:30:19.227Z,16.90
2022-08-25T11:32:48.909Z,13.20
2022-08-25T11:35:18.830Z,13.10
2022-08-25T11:38:00.719Z,17.93
2022-08-25T11:40:55.695Z,11.07
2022-08-25T11:43:25.171Z,13.20
2022-08-25T11:46:01.249Z,12.70
2022-08-25T11:48:51.623Z,10.93
2022-08-25T11:51:33.943Z,16.07
2022-08-25T11:54:36.931Z,12.60
2022-08-25T11:57:07.181Z,12.03
2022-08-25T11:59:52.383Z,10.50
2022-08-25T12:02:30.974Z,14.00
2022-08-25T12:04:57.988Z,12.63
2022-08-25T12:07:28.062Z,10.87
2022-08-25T12:09:54.931Z,12.47
2022-08-25T12:12:29.518Z,11.70
2022-08-25T12:15:23.918Z,13.90
2022-08-25T12:18:12.861Z,10.67
2022-08-25T12:20:56.239Z,14.97
2022-08-25T12:23:30.383Z,12.10
2022-08-25T12:26:01.456Z,11.30
2022-08-25T12:28:36.168Z,13.80
2022-08-25T12:31:16.021Z,10.17
2022-08-25T12:34:02.756Z,11.73
2022-08-25T12:36:33.278Z,13.83
2022-08-25T12:39:18.705Z,12.70
2022-08-25T12:41:56.006Z,14.53
2022-08-25T12:44:36.685Z,14.07
2022-08-25T12:47:24.707Z,13.43
2022-08-25T12:49:51.598Z,15.20
2022-08-25T12:52:21.269Z,9.50
2022-08-25T12:54:59.716Z,13.50
2022-08-25T12:57:42.998Z,10.40
2022-08-25T13:00:16.482Z,12.60
2022-08-25T13:02:52.675Z,12.93
2022-08-25T13:05:25.421Z,15.80
2022-08-25T13:08:33.527Z,18.03
2022-08-25T13:11:17.562Z,14.97
2022-08-25T13:13:57.650Z,12.93
2022-08-25T13:16:29.998Z,11.63
2022-08-25T13:19:01.771Z,13.97
2022-08-25T13:21:33.735Z,9.87
2022-08-25T13:24:05.776Z,9.97
2022-08-25T13:26:37.724Z,11.10
2022-08-25T13:29:19.900Z,10.17
2022-08-25T13:31:58.479Z,11.40
2022-08-25T13:34:34.856Z,11.80
2022-08-25T13:37:29.588Z,14.60
2022-08-25T13:40:10.242Z,12.87
2022-08-25T13:42:42.481Z,11.53
2022-08-25T13:45:16.819Z,9.37
2022-08-25T13:47:45.799Z,13.30
2022-08-25T13:50:17.649Z,12.13
2022-08-25T13:52:53.968Z,16.10
2022-08-25T13:55:27.611Z,9.27
2022-08-25T13:57:54.974Z,12.30
2022-08-25T14:00:43.254Z,11.20
2022-08-25T14:03:30.141Z,10.73
2022-08-25T14:06:16.533Z,9.83
2022-08-25T14:08:48.660Z,14.10
2022-08-25T14:11:34.375Z,12.47
2022-08-25T14:14:09.488Z,11.13
2022-08-25T14:16:43.454Z,13.70
2022-08-25T14:19:19.814Z,13.93
2022-08-25T14:21:47.396Z,11.00
2022-08-25T14:24:22.582Z,15.07
2022-08-25T14:26:54.500Z,11.70
2022-08-25T14:29:22.142Z,14.40
2022-08-25T14:31:49.434Z,13.20
2022-08-25T14:34:18.053Z,8.97
2022-08-25T14:36:48.364Z,16.37
2022-08-25T14:39:15.331Z,14.07
2022-08-25T14:41:45.342Z,15.03
2022-08-25T14:44:20.414Z,18.93
2022-08-25T14:46:55.174Z,20.03
2022-08-25T14:49:26.949Z,12.20
2022-08-25T14:51:53.814Z,12.90
2022-08-25T14:54:25.950Z,11.97
2022-08-25T14:56:53.786Z,9.80
2022-08-25T14:59:20.652Z,13.80
2022-08-25T15:01:50.087Z,13.57
2022-08-25T15:04:27.428Z,12.93
2022-08-25T15:07:00.085Z,11.53
2022-08-25T15:09:33.390Z,10.53
2022-08-25T15:12:00.630Z,14.50
2022-08-25T15:14:29.143Z,11.67
2022-08-25T15:17:01.017Z,9.07
2022-08-25T15:19:28.773Z,12.80
2022-08-25T15:21:57.951Z,17.90
2022-08-25T15:24:26.689Z,8.67
2022-08-25T15:26:56.055Z,10.23
2022-08-25T15:29:26.264Z,10.90
2022-08-25T15:31:53.343Z,12.17
2022-08-25T15:34:20.070Z,10.10
2022-08-25T15:36:46.793Z,11.43
2022-08-25T15:39:14.163Z,12.07
2022-08-25T15:41:42.598Z,13.07
2022-08-25T15:44:11.341Z,9.73
2022-08-25T15:46:41.578Z,12.73
2022-08-25T15:49:08.292Z,15.10
2022-08-25T15:51:35.083Z,15.37
2022-08-25T15:54:04.604Z,9.53
2022-08-25T15:56:31.302Z,13.77
2022-08-25T15:58:57.923Z,14.43
2022-08-25T16:01:27.308Z,13.50
2022-08-25T16:03:57.582Z,14.47
2022-08-25T16:06:26.347Z,10.00
2022-08-25T16:08:52.971Z,15.20
2022-08-25T16:11:24.459Z,11.60
2022-08-25T16:13:52.244Z,8.50
2022-08-25T16:16:20.695Z,14.70
2022-08-25T16:18:47.701Z,12.80
2022-08-25T16:21:17.659Z,11.83
2022-08-25T16:23:45.158Z,15.53
2022-08-25T16:26:13.805Z,10.87
2022-08-25T16:28:43.829Z,10.73
2022-08-25T16:31:13.052Z,11.50
2022-08-25T16:36:15.219Z,11.00
2022-08-25T16:38:42.629Z,10.83
2022-08-25T16:41:22.283Z,18.50
2022-08-25T16:43:49.285Z,10.63
2022-08-25T16:46:19.240Z,14.00
2022-08-25T16:48:46.578Z,10.10
2022-08-25T16:51:16.283Z,15.20
2022-08-25T16:54:08.128Z,11.07
2022-08-25T16:56:36.036Z,11.03
2022-08-25T16:59:04.952Z,14.20
2022-08-25T17:01:35.341Z,12.80
2022-08-25T17:04:04.133Z,13.40
2022-08-25T17:06:35.288Z,11.40
2022-08-25T17:09:02.362Z,11.53
2022-08-25T17:11:35.039Z,8.60
2022-08-25T17:14:04.498Z,11.03
2022-08-25T17:16:37.894Z,12.27
2022-08-25T17:19:11.852Z,16.03
2022-08-25T17:21:41.141Z,11.23
2022-08-25T17:24:12.975Z,13.23
2022-08-25T17:26:41.336Z,11.10
2022-08-25T17:29:08.346Z,12.60
2022-08-25T17:31:39.670Z,9.53
2022-08-25T17:34:12.054Z,13.23
2022-08-25T17:36:39.810Z,11.23
2022-08-25T17:39:08.825Z,12.53
2022-08-25T17:41:37.822Z,17.70
2022-08-25T17:44:05.060Z,14.20
2022-08-25T17:46:32.510Z,13.07
2022-08-25T17:48:59.290Z,14.00
2022-08-25T17:51:25.906Z,15.40
2022-08-25T17:53:52.815Z,12.30
2022-08-25T17:56:21.957Z,15.47
2022-08-25T17:58:49.391Z,14.77
2022-08-25T18:01:25.593Z,16.10
2022-08-25T18:03:52.576Z,11.13
2022-08-25T18:06:20.527Z,14.03
2022-08-25T18:08:53.004Z,13.53
2022-08-25T18:11:24.514Z,14.37
2022-08-25T18:13:55.077Z,14.23
2022-08-25T18:16:23.087Z,13.13
2022-08-25T18:18:50.276Z,15.97
2022-08-25T18:21:20.324Z,13.30
2022-08-25T18:23:47.742Z,14.87
2022-08-25T18:26:17.048Z,15.27
2022-08-25T18:28:48.797Z,11.83
2022-08-25T18:31:15.516Z,16.67
2022-08-25T18:33:46.568Z,19.80
2022-08-25T18:36:13.606Z,17.13
2022-08-25T18:39:00.099Z,11.17
2022-08-25T18:41:34.050Z,18.60
2022-08-25T18:44:00.989Z,11.03
2022-08-25T18:46:27.721Z,9.50
2022-08-25T18:48:55.538Z,13.17
2022-08-25T18:51:23.517Z,15.70
2022-08-25T18:53:54.461Z,15.83
2022-08-25T18:56:26.631Z,16.30
2022-08-25T18:58:53.413Z,20.87
2022-08-25T19:01:20.657Z,10.63
2022-08-25T19:03:48.553Z,11.90
2022-08-25T19:06:15.709Z,19.20
2022-08-25T19:08:42.397Z,20.73
2022-08-25T19:11:10.062Z,11.73
2022-08-25T19:13:38.424Z,10.93
2022-08-25T19:16:17.823Z,9.27
2022-08-25T19:18:47.166Z,12.10
2022-08-25T19:21:13.988Z,14.20
2022-08-25T19:23:40.672Z,18.20
2022-08-25T19:26:13.969Z,15.77
2022-08-25T19:28:48.914Z,16.63
2022-08-25T19:31:18.267Z,16.57
2022-08-25T19:33:47.256Z,11.83
2022-08-25T19:36:16.662Z,11.10
2022-08-25T19:38:44.443Z,11.50
2022-08-25T19:41:14.912Z,16.33
2022-08-25T19:43:56.379Z,18.67
2022-08-25T19:46:33.120Z,14.37
2022-08-25T19:49:09.899Z,19.37
2022-08-25T19:51:44.736Z,18.63
2022-08-25T19:54:13.581Z,18.30
2022-08-25T19:56:53.637Z,15.00
2022-08-25T19:59:22.323Z,14.50
2022-08-25T20:01:50.167Z,12.43
2022-08-25T20:04:17.006Z,12.50
2022-08-25T20:06:43.952Z,15.23
2022-08-25T20:09:36.020Z,14.33
2022-08-25T20:12:02.989Z,15.33
2022-08-25T20:14:29.818Z,16.33
2022-08-25T20:16:56.530Z,18.73
2022-08-25T20:19:23.347Z,13.73
2022-08-25T20:21:50.061Z,29.63
2022-08-25T20:24:35.449Z,14.90
2022-08-25T20:27:03.657Z,16.97
2022-08-25T20:29:31.060Z,15.33
2022-08-25T20:31:58.773Z,14.83
2022-08-25T20:34:28.413Z,14.43
2022-08-25T20:36:55.615Z,14.17
2022-08-25T20:39:22.783Z,16.10
2022-08-25T20:41:49.412Z,11.90
2022-08-25T20:44:17.323Z,11.00
2022-08-25T20:46:44.625Z,13.90
2022-08-25T20:49:12.585Z,15.80
2022-08-25T20:51:40.328Z,16.30
2022-08-25T20:54:07.669Z,17.17
2022-08-25T20:56:34.358Z,13.43
2022-08-25T20:59:01.110Z,13.37
2022-08-25T21:01:37.745Z,17.33
2022-08-25T21:04:09.075Z,15.97
2022-08-25T21:06:36.294Z,13.17
2022-08-25T21:09:12.508Z,15.43
2022-08-25T21:11:43.718Z,14.63
2022-08-25T21:14:12.755Z,22.80
2022-08-25T21:16:40.841Z,12.20
2022-08-25T21:19:08.988Z,13.10
2022-08-25T21:21:44.059Z,15.07
2022-08-25T21:24:11.340Z,13.33
2022-08-25T21:26:47.646Z,18.37
2022-08-25T21:29:16.652Z,19.07
2022-08-25T21:31:43.462Z,14.00
2022-08-25T21:34:11.594Z,17.93
2022-08-25T21:36:38.716Z,22.10
2022-08-25T21:39:05.719Z,20.37
2022-08-25T21:41:36.889Z,19.73
2022-08-25T21:44:03.803Z,20.50
2022-08-25T21:46:33.449Z,14.90
2022-08-25T21:49:01.450Z,20.83
2022-08-25T21:51:43.406Z,19.80
2022-08-25T21:54:13.217Z,13.53
2022-08-25T21:56:39.800Z,18.30
2022-08-25T21:59:08.763Z,16.67
2022-08-25T22:01:35.688Z,24.63
2022-08-25T22:04:03.301Z,17.80
2022-08-25T22:06:32.170Z,19.57
2022-08-25T22:08:58.909Z,23.73
2022-08-25T22:11:26.487Z,22.73
2022-08-25T22:13:53.522Z,16.50
2022-08-25T22:16:22.042Z,16.50
2022-08-25T22:18:49.811Z,20.07
2022-08-25T22:21:18.733Z,18.40
2022-08-25T22:23:45.775Z,19.30
2022-08-25T22:26:15.317Z,21.77
2022-08-25T22:28:46.486Z,15.20
2022-08-25T22:31:14.798Z,19.57
2022-08-25T22:33:48.440Z,15.07
2022-08-25T22:36:15.605Z,20.50
2022-08-25T22:38:43.893Z,16.13
2022-08-25T22:41:10.879Z,21.43
2022-08-25T22:43:38.623Z,16.43
2022-08-25T22:46:06.232Z,23.00
2022-08-25T22:48:38.287Z,17.40
2022-08-25T22:51:16.293Z,19.97
2022-08-25T22:53:44.590Z,25.17
2022-08-25T22:56:13.356Z,28.97
2022-08-25T22:58:51.642Z,20.93
2022-08-25T23:01:20.449Z,14.53
2022-08-25T23:03:47.602Z,19.73
2022-08-25T23:06:20.731Z,22.63
2022-08-25T23:08:52.379Z,17.90
2022-08-25T23:11:21.760Z,18.10
2022-08-25T23:13:48.484Z,24.10
2022-08-25T23:16:15.899Z,15.87
2022-08-25T23:18:44.686Z,20.00
2022-08-25T23:21:35.120Z,22.47
2022-08-25T23:24:04.881Z,19.83
2022-08-25T23:26:33.390Z,22.07
2022-08-25T23:29:00.635Z,19.30
2022-08-25T23:31:30.147Z,16.50
2022-08-25T23:33:57.831Z,24.83
2022-08-25T23:36:24.975Z,21.67
2022-08-25T23:38:52.513Z,18.57
2022-08-25T23:41:23.095Z,19.97
2022-08-25T23:43:50.675Z,25.00
2022-08-25T23:46:19.824Z,18.70
2022-08-25T23:48:49.490Z,29.57
2022-08-25T23:51:27.844Z,19.13
2022-08-25T23:53:55.895Z,18.77
2022-08-25T23:56:24.078Z,24.50
2022-08-25T23:58:51.993Z,24.03
